Terminal Aerodrome Forecast
Issued by NWS

Home | Current Version | Previous Version | Text Only | Print | Product List | Glossary On
Versions: 1 2 3 4 5 6 7 8 9 10 11 12 13 14 15 16
000
FTUS43 KICT 302300
TAFHUT
TAF
KHUT 302320Z 3100/3124 04007KT P6SM FEW025 BKN050
     FM310100 02005KT P6SM SCT250
      TEMPO 3109/3113 4SM BR=

USA.gov is the U.S. government's official web portal to all federal, state and local government web resources and services.